Star Lake, WI (54561)

6:43 PM CST on February 07, 2016 (GMT -0600)
Plum Lake - Pinney Woods | | Change Station
CLOSE
Current Station
Personal Weather Station
Location: Sayner, WI
Elevation: 1726 ft
Nearby Weather Stations
Active Advisory: Winter Weather Advisory

Elev 1726 ft 46.01 °N, 89.53 °W | Updated 8 seconds ago

Snow
Snow
32.5 °F
Feels Like 32 °F
N
0.0
Wind Variable Wind from SW
Gusts 0.0 mph

Today
High -- | Low -- °F
--% Chance of Precip.
Yesterday
High -- | Low -- °F
Precip. -- in
Pressure 29.52 in
Visibility 7.0 miles
Clouds Overcast 1600 ft
Windchill 32 °F
Dew Point 29 °F
Humidity 85%
Rainfall 0.00 in
Snow Depth Not available.
7:13 AM 5:11 PM
Waning Crescent, 0% visible
METAR KEGV 080010Z AUTO 23005KT 7SM -SN OVC016 00/00 A2952 RMK AO2 T00031002
Pressure 29.52 in
Visibility 7.0 miles
Clouds Overcast 1600 ft
Windchill 32 °F
Dew Point 29 °F
Humidity 85%
Rainfall 0.00 in
Snow Depth Not available.
7:13 AM 5:11 PM
Waning Crescent, 0% visible
METAR KEGV 080010Z AUTO 23005KT 7SM -SN OVC016 00/00 A2952 RMK AO2 T00031002

10-Day Weather Forecast

Almanac

Astronomy

Feb. 07, 2016 Rise Set
Actual Time
Civil Twilight
Nautical Twilight
Astronomical Twilight
Moon
Length of Visible Light
Length of Day
Tomorrow will be .
, % of the Moon is Illuminated

Today's Extremes

State Highs State Lows

Community

WunderPhotos

Upload Photos

1,891,339 photos uploaded!

WunderBlog® & News

Nearby

Air Quality

  Air Quality AQ Index Pollutant
Not available.

Snow Depth

Station Depth Elevation

Earthquake Activity

City Distance Mag. Time & Date
Minimum magnitude displayed is 2.5.

Coastal Water Temperatures

Place Temperature

Stations

Nearby Weather Stations

Station Location Temp. Windchill Dew Point Humidity Wind Precip. Elev Updated Type
                   

Watches & Warnings

Winter Weather Advisory
Issued: 4:21 PM CST Feb. 7, 2016 – National Weather Service

... Winter Weather Advisory remains in effect until 6 PM CST
Monday...

A Winter Weather Advisory remains in effect until 6 PM CST
Monday.

* Expect snow to increase this evening then diminish around 6 PM
Monday.

* The heaviest snowfall rates will occur between midnight and 6
am Monday.

* Total snow accumulations of 2 to 4 inches are expected... with
higher totals possible in the northwest corner of Vilas County.

* Expect reduced visibilities at times... and slippery
roads... including during the Monday morning commute.

Precautionary/preparedness actions...

A Winter Weather Advisory for snow means periods of snow will
cause primarily travel difficulties. Be prepared for snow covered
roads and limited visibilities... and use extra caution while
driving. The latest Wisconsin Road conditions can be obtained by
calling 511.